Weather at Sarajevo International Airport

Public forecast

Using degrees Celsius for public forecast. Weather courtesy of forecast.io.

Current aviation weather report (METAR) for Sarajevo International Airport

Retrieved 2021/12/05 08:30 UTC (12 minutes ago):

LQSA 050830Z 15021KT 9999 -RA FEW025 SCT045 10/05 Q1002 WS ALL RWY NOSIG

Aviation forecast (TAF) for Sarajevo International Airport

Retrieved 2021/12/05 06:53 UTC (2 hours ago):

TAF LQSA 050545Z 0506/0606 15006KT 6000 FEW005 SCT070 TX08/0511Z TNM00/0506Z PROB30 0506/0508 1200 BCFG TEMPO 0510/0606 5000 RA BKN014 BKN030 PROB30 TEMPO 0518/0521 21010KT 3000 SHRA FEW027TCU BKN030